createdAt,value
2018-09-14T00:02:03.533Z,16.99
2018-09-14T00:04:31.801Z,16.85
2018-09-14T00:07:00.083Z,16.87
2018-09-14T00:09:28.299Z,16.83
2018-09-14T00:11:56.621Z,16.87
2018-09-14T00:14:24.793Z,16.88
2018-09-14T00:16:53.175Z,16.91
2018-09-14T00:19:21.413Z,16.79
2018-09-14T00:21:49.761Z,16.81
2018-09-14T00:24:17.872Z,16.79
2018-09-14T00:26:46.185Z,16.79
2018-09-14T00:29:14.424Z,16.73
2018-09-14T00:31:42.729Z,16.68
2018-09-14T00:34:11.026Z,16.57
2018-09-14T00:36:39.349Z,16.60
2018-09-14T00:39:09.579Z,16.68
2018-09-14T00:41:38.202Z,16.65
2018-09-14T00:44:06.521Z,16.61
2018-09-14T00:46:34.841Z,16.65
2018-09-14T00:49:03.259Z,16.60
2018-09-14T00:51:31.437Z,16.65
2018-09-14T00:53:59.700Z,16.58
2018-09-14T00:56:27.890Z,16.65
2018-09-14T00:58:56.880Z,16.58
2018-09-14T01:01:25.089Z,16.46
2018-09-14T01:03:53.620Z,16.52
2018-09-14T01:06:22.004Z,16.44
2018-09-14T01:08:50.248Z,16.42
2018-09-14T01:11:18.512Z,16.46
2018-09-14T01:13:47.365Z,16.50
2018-09-14T01:16:15.608Z,16.50
2018-09-14T01:18:43.907Z,16.37
2018-09-14T01:21:12.068Z,16.38
2018-09-14T01:23:40.209Z,16.34
2018-09-14T01:26:08.979Z,16.38
2018-09-14T01:28:37.158Z,16.42
2018-09-14T01:31:05.526Z,16.42
2018-09-14T01:33:33.838Z,16.38
2018-09-14T01:36:07.583Z,16.34
2018-09-14T01:38:35.726Z,16.29
2018-09-14T01:41:03.886Z,16.38
2018-09-14T01:43:32.348Z,16.31
2018-09-14T01:46:00.555Z,16.34
2018-09-14T01:48:29.666Z,16.39
2018-09-14T01:50:57.767Z,16.37
2018-09-14T01:53:25.898Z,16.36
2018-09-14T01:55:54.406Z,16.26
2018-09-14T01:58:22.736Z,16.22
2018-09-14T02:00:50.922Z,16.34
2018-09-14T02:03:19.153Z,16.28
2018-09-14T02:05:48.003Z,16.39
2018-09-14T02:08:16.157Z,16.50
2018-09-14T02:10:44.261Z,16.51
2018-09-14T02:13:12.577Z,16.50
2018-09-14T02:15:40.737Z,16.48
2018-09-14T02:18:09.009Z,16.51
2018-09-14T02:20:37.344Z,16.48
2018-09-14T02:23:05.631Z,16.49
2018-09-14T02:25:33.924Z,16.37
2018-09-14T02:28:02.079Z,16.27
2018-09-14T02:30:30.397Z,16.10
2018-09-14T02:32:59.135Z,16.11
2018-09-14T02:35:28.407Z,16.00
2018-09-14T02:37:58.091Z,15.93
2018-09-14T02:40:26.347Z,15.88
2018-09-14T02:42:54.508Z,15.85
2018-09-14T02:45:22.671Z,15.85
2018-09-14T02:47:50.860Z,15.87
2018-09-14T02:50:19.101Z,15.87
2018-09-14T02:52:47.281Z,15.84
2018-09-14T02:55:15.685Z,15.91
2018-09-14T02:57:43.847Z,15.95
2018-09-14T03:00:12.361Z,16.02
2018-09-14T03:02:40.743Z,16.15
2018-09-14T03:05:09.379Z,16.12
2018-09-14T03:07:37.818Z,16.07
2018-09-14T03:10:06.442Z,16.10
2018-09-14T03:12:34.744Z,15.99
2018-09-14T03:15:03.258Z,15.98
2018-09-14T03:17:31.501Z,15.95
2018-09-14T03:19:59.829Z,16.03
2018-09-14T03:22:28.718Z,16.02
2018-09-14T03:24:56.857Z,16.00
2018-09-14T03:27:25.045Z,16.10
2018-09-14T03:29:53.351Z,16.16
2018-09-14T03:32:21.568Z,16.05
2018-09-14T03:34:49.811Z,16.11
2018-09-14T03:37:17.999Z,15.98
2018-09-14T03:39:46.332Z,15.92
2018-09-14T03:42:14.688Z,15.91
2018-09-14T03:44:43.017Z,15.78
2018-09-14T03:47:11.106Z,15.68
2018-09-14T03:49:39.356Z,15.77
2018-09-14T03:52:07.540Z,15.64
2018-09-14T03:54:35.789Z,15.65
2018-09-14T03:57:04.950Z,15.69
2018-09-14T03:59:35.684Z,15.74
2018-09-14T04:02:04.583Z,15.79
2018-09-14T04:04:32.956Z,15.69
2018-09-14T04:07:01.433Z,15.67
2018-09-14T04:09:29.666Z,15.62
2018-09-14T04:11:58.357Z,15.62
2018-09-14T04:14:26.756Z,15.59
2018-09-14T04:16:55.129Z,15.57
2018-09-14T04:19:23.440Z,15.55
2018-09-14T04:21:51.541Z,15.60
2018-09-14T04:24:19.705Z,15.59
2018-09-14T04:26:47.895Z,15.45
2018-09-14T04:29:16.164Z,15.45
2018-09-14T04:31:44.373Z,15.49
2018-09-14T04:34:12.613Z,15.60
2018-09-14T04:36:41.553Z,15.61
2018-09-14T04:39:10.265Z,15.66
2018-09-14T04:41:38.813Z,15.75
2018-09-14T04:44:07.034Z,15.77
2018-09-14T04:46:35.400Z,15.93
2018-09-14T04:49:03.688Z,15.86
2018-09-14T04:51:31.993Z,15.80
2018-09-14T04:54:00.186Z,15.76
2018-09-14T04:56:28.460Z,15.99
2018-09-14T04:58:56.689Z,16.00
2018-09-14T05:01:24.946Z,16.05
2018-09-14T05:03:53.200Z,15.96
2018-09-14T05:06:21.452Z,15.98
2018-09-14T05:08:49.593Z,15.85
2018-09-14T05:11:17.878Z,15.79
2018-09-14T05:13:46.050Z,15.66
2018-09-14T05:16:14.304Z,15.48
2018-09-14T05:18:42.558Z,15.38
2018-09-14T05:21:10.938Z,15.28
2018-09-14T05:23:39.122Z,15.28
2018-09-14T05:26:07.596Z,15.26
2018-09-14T05:28:36.453Z,15.13
2018-09-14T05:31:04.997Z,15.09
2018-09-14T05:33:33.499Z,15.15
2018-09-14T05:36:02.162Z,15.12
2018-09-14T05:38:30.481Z,15.15
2018-09-14T05:40:58.765Z,15.22
2018-09-14T05:43:27.409Z,15.45
2018-09-14T05:45:55.550Z,15.52
2018-09-14T05:48:23.996Z,15.63
2018-09-14T05:50:52.151Z,15.77
2018-09-14T05:53:20.447Z,15.83
2018-09-14T05:55:48.647Z,15.80
2018-09-14T05:58:16.959Z,15.87
2018-09-14T06:00:45.129Z,15.97
2018-09-14T06:03:13.467Z,16.00
2018-09-14T06:05:41.669Z,16.02
2018-09-14T06:08:09.794Z,16.04
2018-09-14T06:10:37.894Z,16.15
2018-09-14T06:13:06.286Z,16.17
2018-09-14T06:15:34.328Z,16.29
2018-09-14T06:18:02.472Z,16.47
2018-09-14T06:20:37.341Z,16.63
2018-09-14T06:23:05.757Z,16.72
2018-09-14T06:25:34.575Z,16.96
2018-09-14T06:28:02.952Z,17.03
2018-09-14T06:30:31.054Z,16.92
2018-09-14T06:32:59.184Z,17.01
2018-09-14T06:35:27.458Z,17.02
2018-09-14T06:37:55.578Z,17.06
2018-09-14T06:40:23.720Z,16.96
2018-09-14T06:42:51.878Z,17.19
2018-09-14T06:45:20.166Z,17.24
2018-09-14T06:47:48.499Z,17.36
2018-09-14T06:50:16.846Z,17.47
2018-09-14T06:52:45.203Z,17.66
2018-09-14T06:55:13.391Z,17.80
2018-09-14T06:57:41.683Z,17.84
2018-09-14T07:00:10.116Z,17.89
2018-09-14T07:02:38.448Z,17.94
2018-09-14T07:05:06.692Z,18.30
2018-09-14T07:07:35.146Z,18.30
2018-09-14T07:10:03.466Z,18.01
2018-09-14T07:12:31.764Z,17.81
2018-09-14T07:15:00.482Z,17.80
2018-09-14T07:17:28.562Z,18.13
2018-09-14T07:19:56.694Z,18.40
2018-09-14T07:22:24.848Z,18.69
2018-09-14T07:24:53.087Z,18.48
2018-09-14T07:27:21.116Z,18.44
2018-09-14T07:29:49.388Z,18.84
2018-09-14T07:32:17.563Z,18.94
2018-09-14T07:34:46.334Z,19.16
2018-09-14T07:37:14.590Z,18.89
2018-09-14T07:39:42.834Z,19.01
2018-09-14T07:42:11.091Z,19.19
2018-09-14T07:44:39.199Z,19.24
2018-09-14T07:47:07.348Z,19.42
2018-09-14T07:49:35.536Z,19.11
2018-09-14T07:52:04.011Z,19.17
2018-09-14T07:54:32.867Z,18.94
2018-09-14T07:57:01.013Z,19.18
2018-09-14T07:59:29.284Z,19.36
2018-09-14T08:01:57.435Z,19.41
2018-09-14T08:04:25.731Z,19.43
2018-09-14T08:06:53.979Z,19.61
2018-09-14T08:09:22.205Z,19.63
2018-09-14T08:11:50.384Z,19.45
2018-09-14T08:14:18.659Z,19.85
2018-09-14T08:16:47.018Z,19.96
2018-09-14T08:19:15.177Z,20.26
2018-09-14T08:21:43.603Z,21.04
2018-09-14T08:24:11.689Z,22.12
2018-09-14T08:26:40.573Z,22.92
2018-09-14T08:29:08.781Z,23.55
2018-09-14T08:31:36.996Z,24.13
2018-09-14T08:34:05.254Z,24.91
2018-09-14T08:36:33.504Z,25.25
2018-09-14T08:42:02.040Z,24.91
2018-09-14T08:44:30.268Z,24.54
2018-09-14T08:46:58.691Z,24.08
2018-09-14T08:49:26.876Z,23.31
2018-09-14T08:51:55.052Z,23.53
2018-09-14T08:54:23.192Z,23.64
2018-09-14T08:56:52.078Z,23.48
2018-09-14T08:59:20.156Z,23.35
2018-09-14T09:01:48.296Z,23.43
2018-09-14T09:04:16.578Z,23.07
2018-09-14T09:06:44.778Z,22.24
2018-09-14T09:09:13.113Z,22.42
2018-09-14T09:11:42.068Z,22.24
2018-09-14T09:14:10.260Z,21.91
2018-09-14T09:16:39.016Z,21.39
2018-09-14T09:19:07.196Z,21.72
2018-09-14T09:21:35.452Z,21.52
2018-09-14T09:24:03.536Z,21.36
2018-09-14T09:26:31.686Z,21.35
2018-09-14T09:28:59.850Z,21.04
2018-09-14T09:31:28.016Z,21.04
2018-09-14T09:33:56.232Z,20.73
2018-09-14T09:36:24.482Z,20.87
2018-09-14T09:38:52.917Z,20.38
2018-09-14T09:41:21.115Z,20.32
2018-09-14T09:43:49.318Z,20.53
2018-09-14T09:46:17.402Z,20.68
2018-09-14T09:48:45.595Z,20.50
2018-09-14T09:51:13.918Z,20.54
2018-09-14T09:53:41.936Z,20.48
2018-09-14T09:56:10.082Z,20.32
2018-09-14T09:58:38.286Z,20.43
2018-09-14T10:01:12.324Z,20.47
2018-09-14T10:03:43.399Z,20.35
2018-09-14T10:06:17.036Z,20.26
2018-09-14T10:08:45.221Z,20.11
2018-09-14T10:11:13.286Z,20.05
2018-09-14T10:13:42.101Z,20.08
2018-09-14T10:16:10.189Z,19.99
2018-09-14T10:18:38.394Z,20.09
2018-09-14T10:21:06.676Z,20.14
2018-09-14T10:23:34.876Z,20.41
2018-09-14T10:26:03.041Z,20.57
2018-09-14T10:28:31.145Z,20.43
2018-09-14T10:30:59.330Z,20.51
2018-09-14T10:33:27.556Z,20.83
2018-09-14T10:35:55.816Z,21.09
2018-09-14T10:38:23.990Z,21.43
2018-09-14T10:40:52.119Z,21.78
2018-09-14T10:43:20.203Z,22.06
2018-09-14T10:45:48.489Z,22.51
2018-09-14T10:48:16.699Z,22.59
2018-09-14T10:50:44.939Z,22.70
2018-09-14T10:53:13.223Z,22.72
2018-09-14T10:55:41.391Z,22.74
2018-09-14T10:58:09.728Z,22.92
2018-09-14T11:00:38.060Z,22.98
2018-09-14T11:03:06.253Z,22.77
2018-09-14T11:05:35.415Z,22.82
2018-09-14T11:08:03.724Z,22.59
2018-09-14T11:10:32.116Z,22.51
2018-09-14T11:13:00.306Z,22.48
2018-09-14T11:15:28.505Z,22.27
2018-09-14T11:17:57.322Z,22.25
2018-09-14T11:20:25.551Z,22.12
2018-09-14T11:22:53.587Z,22.09
2018-09-14T11:25:21.744Z,22.23
2018-09-14T11:27:49.909Z,22.38
2018-09-14T11:30:17.965Z,22.42
2018-09-14T11:32:46.077Z,22.79
2018-09-14T11:35:14.424Z,23.00
2018-09-14T11:37:42.647Z,23.23
2018-09-14T11:40:10.832Z,23.20
2018-09-14T11:42:38.966Z,23.37
2018-09-14T11:45:07.209Z,23.49
2018-09-14T11:47:35.472Z,23.67
2018-09-14T11:50:03.866Z,23.54
2018-09-14T11:52:32.748Z,23.15
2018-09-14T11:55:00.856Z,23.63
2018-09-14T11:57:28.958Z,23.96
2018-09-14T11:59:57.061Z,24.26
2018-09-14T12:02:25.438Z,24.41
2018-09-14T12:04:54.686Z,24.08
2018-09-14T12:07:23.093Z,23.88
2018-09-14T12:09:51.415Z,23.76
2018-09-14T12:12:19.670Z,23.69
2018-09-14T12:14:47.889Z,23.77
2018-09-14T12:17:16.248Z,23.73
2018-09-14T12:19:44.423Z,23.81
2018-09-14T12:22:12.683Z,24.15
2018-09-14T12:24:40.817Z,24.59
2018-09-14T12:27:09.095Z,24.47
2018-09-14T12:29:37.337Z,24.47
2018-09-14T12:32:05.615Z,24.41
2018-09-14T12:34:33.952Z,23.98
2018-09-14T12:37:02.121Z,23.95
2018-09-14T12:39:30.379Z,23.88
2018-09-14T12:41:58.580Z,23.83
2018-09-14T12:44:26.677Z,23.65
2018-09-14T12:46:54.853Z,23.51
2018-09-14T12:49:23.089Z,22.80
2018-09-14T12:51:51.270Z,22.95
2018-09-14T12:54:19.439Z,23.13
2018-09-14T12:56:47.638Z,23.21
2018-09-14T12:59:15.826Z,23.36
2018-09-14T13:01:44.172Z,23.16
2018-09-14T13:04:12.421Z,23.00
2018-09-14T13:06:40.524Z,22.88
2018-09-14T13:09:10.377Z,22.90
2018-09-14T13:11:38.996Z,22.72
2018-09-14T13:14:07.571Z,22.74
2018-09-14T13:16:35.749Z,22.79
2018-09-14T13:19:04.082Z,22.69
2018-09-14T13:21:33.536Z,22.75
2018-09-14T13:24:01.991Z,22.97
2018-09-14T13:26:30.114Z,23.80
2018-09-14T13:28:58.184Z,24.94
2018-09-14T13:31:26.322Z,27.13
2018-09-14T13:33:54.563Z,28.24
2018-09-14T13:36:22.634Z,28.93
2018-09-14T13:38:50.816Z,28.49
2018-09-14T13:41:18.999Z,28.44
2018-09-14T13:43:47.244Z,32.26
2018-09-14T13:46:15.403Z,31.79
2018-09-14T13:48:43.497Z,30.05
2018-09-14T13:51:12.226Z,28.62
2018-09-14T13:53:40.405Z,28.11
2018-09-14T13:56:08.564Z,27.52
2018-09-14T13:58:36.806Z,27.35
2018-09-14T14:01:05.121Z,26.85
2018-09-14T14:03:33.275Z,26.18
2018-09-14T14:06:01.452Z,25.86
2018-09-14T14:08:29.597Z,25.56
2018-09-14T14:10:57.693Z,25.26
2018-09-14T14:13:25.812Z,24.78
2018-09-14T14:15:53.948Z,24.42
2018-09-14T14:18:22.309Z,24.34
2018-09-14T14:20:50.489Z,24.15
2018-09-14T14:23:18.676Z,24.05
2018-09-14T14:25:47.369Z,24.32
2018-09-14T14:28:15.659Z,24.76
2018-09-14T14:30:43.952Z,25.47
2018-09-14T14:33:12.166Z,26.36
2018-09-14T14:35:40.459Z,27.41
2018-09-14T14:38:08.649Z,28.64
2018-09-14T14:40:36.869Z,28.01
2018-09-14T14:43:05.113Z,26.62
2018-09-14T14:45:33.834Z,25.98
2018-09-14T14:48:02.112Z,25.32
2018-09-14T14:50:30.422Z,24.86
2018-09-14T14:52:58.671Z,24.72
2018-09-14T14:55:26.969Z,24.72
2018-09-14T14:57:55.140Z,24.12
2018-09-14T15:00:23.352Z,23.78
2018-09-14T15:02:51.592Z,23.70
2018-09-14T15:05:19.842Z,23.67
2018-09-14T15:07:48.043Z,23.94
2018-09-14T15:10:16.309Z,24.36
2018-09-14T15:12:44.441Z,24.30
2018-09-14T15:15:12.690Z,23.89
2018-09-14T15:17:40.834Z,23.90
2018-09-14T15:20:09.069Z,24.06
2018-09-14T15:22:37.193Z,24.35
2018-09-14T15:25:05.376Z,24.42
2018-09-14T15:27:33.657Z,24.47
2018-09-14T15:30:01.884Z,24.01
2018-09-14T15:32:30.153Z,24.24
2018-09-14T15:34:58.425Z,24.01
2018-09-14T15:37:26.646Z,23.64
2018-09-14T15:39:54.894Z,23.64
2018-09-14T15:42:23.094Z,23.45
2018-09-14T15:44:51.349Z,23.32
2018-09-14T15:47:19.552Z,23.24
2018-09-14T15:49:47.720Z,23.15
2018-09-14T15:52:15.848Z,23.00
2018-09-14T15:54:43.996Z,22.88
2018-09-14T15:57:12.129Z,22.68
2018-09-14T15:59:40.248Z,22.53
2018-09-14T16:02:08.623Z,22.49
2018-09-14T16:04:36.904Z,22.38
2018-09-14T16:07:06.419Z,22.17
2018-09-14T16:09:34.560Z,22.06
2018-09-14T16:12:02.761Z,21.95
2018-09-14T16:14:30.955Z,21.95
2018-09-14T16:16:59.073Z,21.88
2018-09-14T16:19:27.257Z,21.96
2018-09-14T16:21:55.456Z,21.90
2018-09-14T16:24:23.906Z,22.03
2018-09-14T16:26:52.119Z,21.93
2018-09-14T16:29:20.305Z,21.64
2018-09-14T16:31:48.506Z,21.54
2018-09-14T16:34:16.703Z,21.46
2018-09-14T16:36:44.949Z,21.56
2018-09-14T16:39:13.113Z,21.53
2018-09-14T16:41:41.488Z,21.47
2018-09-14T16:44:10.028Z,21.49
2018-09-14T16:46:38.545Z,21.37
2018-09-14T16:49:07.483Z,21.20
2018-09-14T16:51:35.749Z,20.84
2018-09-14T16:54:03.812Z,20.97
2018-09-14T16:56:31.951Z,21.01
2018-09-14T16:59:00.144Z,21.03
2018-09-14T17:01:28.381Z,21.04
2018-09-14T17:03:56.662Z,21.06
2018-09-14T17:06:24.930Z,20.92
2018-09-14T17:08:53.149Z,20.90
2018-09-14T17:11:21.421Z,20.78
2018-09-14T17:13:49.683Z,20.74
2018-09-14T17:16:17.897Z,20.77
2018-09-14T17:18:46.166Z,20.74
2018-09-14T17:21:14.430Z,20.49
2018-09-14T17:23:42.694Z,20.48
2018-09-14T17:26:10.943Z,20.44
2018-09-14T17:28:39.098Z,20.38
2018-09-14T17:31:07.367Z,20.33
2018-09-14T17:33:35.659Z,20.03
2018-09-14T17:36:03.861Z,19.92
2018-09-14T17:38:32.073Z,20.02
2018-09-14T17:41:00.295Z,19.99
2018-09-14T17:43:28.512Z,19.93
2018-09-14T17:45:56.648Z,19.80
2018-09-14T17:48:24.826Z,19.82
2018-09-14T17:50:52.990Z,19.74
2018-09-14T17:53:21.144Z,19.83
2018-09-14T17:55:49.422Z,19.70
2018-09-14T17:58:17.671Z,19.62
2018-09-14T18:00:45.956Z,19.49
2018-09-14T18:03:14.190Z,19.40
2018-09-14T18:05:42.452Z,19.35
2018-09-14T18:08:10.581Z,19.32
2018-09-14T18:10:38.955Z,19.21
2018-09-14T18:13:07.185Z,19.23
2018-09-14T18:15:35.393Z,19.24
2018-09-14T18:18:03.602Z,19.30
2018-09-14T18:20:31.990Z,19.19
2018-09-14T18:23:00.061Z,19.12
2018-09-14T18:25:29.096Z,19.10
2018-09-14T18:27:57.495Z,19.15
2018-09-14T18:30:25.762Z,19.24
2018-09-14T18:32:54.048Z,19.34
2018-09-14T18:35:22.441Z,19.39
2018-09-14T18:37:51.593Z,19.50
2018-09-14T18:40:19.835Z,19.34
2018-09-14T18:42:48.518Z,19.27
2018-09-14T18:45:16.850Z,19.24
2018-09-14T18:47:45.032Z,19.12
2018-09-14T18:50:13.292Z,19.03
2018-09-14T18:52:41.484Z,18.94
2018-09-14T18:55:09.988Z,18.83
2018-09-14T18:57:38.235Z,18.76
2018-09-14T19:00:06.429Z,18.86
2018-09-14T19:02:34.821Z,18.96
2018-09-14T19:05:04.066Z,19.06
2018-09-14T19:07:32.621Z,19.19
2018-09-14T19:10:00.845Z,19.22
2018-09-14T19:12:29.270Z,19.16
2018-09-14T19:14:57.857Z,19.11
2018-09-14T19:17:26.384Z,18.99
2018-09-14T19:19:54.780Z,19.14
2018-09-14T19:22:23.396Z,19.07
2018-09-14T19:24:51.650Z,18.92
2018-09-14T19:27:20.121Z,18.92
2018-09-14T19:29:48.352Z,19.02
2018-09-14T19:32:16.524Z,19.04
2018-09-14T19:34:45.272Z,19.03
2018-09-14T19:37:13.482Z,19.05
2018-09-14T19:39:41.701Z,19.07
2018-09-14T19:42:10.688Z,18.95
2018-09-14T19:44:38.980Z,18.88
2018-09-14T19:47:07.483Z,18.70
2018-09-14T19:49:35.997Z,18.55
2018-09-14T19:52:04.642Z,18.46
2018-09-14T19:54:32.919Z,18.33
2018-09-14T19:57:01.478Z,18.20
2018-09-14T19:59:29.970Z,18.15
2018-09-14T20:01:58.634Z,18.04
2018-09-14T20:04:27.176Z,18.10
2018-09-14T20:06:55.757Z,17.98
2018-09-14T20:09:24.532Z,18.00
2018-09-14T20:11:52.857Z,18.10
2018-09-14T20:14:21.496Z,18.04
2018-09-14T20:16:49.905Z,18.03
2018-09-14T20:19:18.149Z,18.01
2018-09-14T20:21:46.550Z,17.93
2018-09-14T20:24:14.632Z,17.88
2018-09-14T20:26:42.864Z,17.86
2018-09-14T20:29:12.098Z,17.73
2018-09-14T20:31:40.442Z,17.84
2018-09-14T20:34:08.678Z,17.78
2018-09-14T20:36:36.965Z,17.66
2018-09-14T20:39:10.479Z,17.62
2018-09-14T20:41:38.873Z,17.64
2018-09-14T20:44:07.203Z,17.61
2018-09-14T20:46:35.566Z,17.69
2018-09-14T20:49:03.779Z,17.88
2018-09-14T20:51:31.924Z,17.92
2018-09-14T20:54:00.154Z,17.95
2018-09-14T20:56:28.331Z,17.87
2018-09-14T20:58:56.560Z,17.97
2018-09-14T21:01:24.833Z,17.78
2018-09-14T21:03:53.629Z,17.65
2018-09-14T21:06:22.012Z,17.60
2018-09-14T21:08:50.126Z,17.57
2018-09-14T21:11:18.328Z,17.46
2018-09-14T21:13:46.411Z,17.39
2018-09-14T21:16:14.500Z,17.36
2018-09-14T21:18:42.636Z,17.36
2018-09-14T21:21:10.790Z,17.32
2018-09-14T21:23:39.006Z,17.30
2018-09-14T21:26:07.235Z,17.30
2018-09-14T21:28:35.513Z,17.29
2018-09-14T21:31:03.783Z,17.25
2018-09-14T21:33:32.071Z,17.31
2018-09-14T21:36:00.184Z,17.34
2018-09-14T21:38:28.311Z,17.32
2018-09-14T21:40:56.520Z,17.35
2018-09-14T21:43:24.649Z,17.23
2018-09-14T21:45:52.981Z,17.20
2018-09-14T21:48:21.222Z,17.24
2018-09-14T21:50:49.389Z,17.27
2018-09-14T21:53:17.614Z,17.32
2018-09-14T21:55:45.969Z,17.29
2018-09-14T21:58:14.122Z,17.35
2018-09-14T22:00:47.978Z,17.29
2018-09-14T22:03:16.106Z,17.35
2018-09-14T22:05:44.232Z,17.36
2018-09-14T22:08:12.361Z,17.53
2018-09-14T22:10:40.597Z,17.68
2018-09-14T22:13:08.854Z,17.75
2018-09-14T22:15:37.030Z,17.75
2018-09-14T22:18:05.868Z,17.85
2018-09-14T22:20:34.035Z,17.87
2018-09-14T22:23:02.270Z,17.75
2018-09-14T22:25:31.737Z,17.73
2018-09-14T22:28:00.035Z,17.83
2018-09-14T22:30:28.175Z,17.95
2018-09-14T22:32:56.387Z,18.00
2018-09-14T22:35:24.742Z,18.09
2018-09-14T22:37:53.414Z,17.99
2018-09-14T22:40:21.701Z,17.89
2018-09-14T22:42:50.109Z,17.94
2018-09-14T22:45:18.439Z,17.94
2018-09-14T22:47:46.704Z,17.84
2018-09-14T22:50:14.927Z,17.94
2018-09-14T22:52:43.202Z,18.00
2018-09-14T22:55:11.460Z,17.91
2018-09-14T22:57:39.718Z,17.81
2018-09-14T23:00:08.001Z,17.43
2018-09-14T23:02:36.147Z,17.34
2018-09-14T23:05:04.383Z,17.22
2018-09-14T23:07:32.523Z,17.31
2018-09-14T23:10:00.612Z,17.35
2018-09-14T23:12:28.769Z,17.50
2018-09-14T23:14:57.115Z,17.62
2018-09-14T23:17:25.341Z,17.70
2018-09-14T23:19:53.549Z,17.72
2018-09-14T23:22:21.640Z,17.71
2018-09-14T23:24:50.493Z,17.74
2018-09-14T23:27:18.643Z,17.80
2018-09-14T23:29:46.769Z,17.79
2018-09-14T23:32:14.965Z,17.67
2018-09-14T23:34:43.106Z,17.75
2018-09-14T23:37:11.244Z,17.77
2018-09-14T23:39:39.423Z,17.87
2018-09-14T23:42:07.677Z,17.85
2018-09-14T23:44:35.793Z,17.69
2018-09-14T23:47:04.943Z,17.82
2018-09-14T23:49:33.116Z,17.86
2018-09-14T23:52:01.291Z,17.85
2018-09-14T23:54:29.459Z,17.81
2018-09-14T23:56:57.597Z,17.85
2018-09-14T23:59:25.792Z,17.84
